sensor_id;sensor_type;location;lat;lon;timestamp;P1;durP1;ratioP1;P2;durP2;ratioP2
35048;SDS011;21236;48.740;-3.446;2022-12-11T00:01:16;37.10;;;18.77;;
35048;SDS011;21236;48.740;-3.446;2022-12-11T00:03:44;34.22;;;19.35;;
35048;SDS011;21236;48.740;-3.446;2022-12-11T00:06:11;30.98;;;17.60;;
35048;SDS011;21236;48.740;-3.446;2022-12-11T00:08:38;32.47;;;17.48;;
35048;SDS011;21236;48.740;-3.446;2022-12-11T00:11:06;38.63;;;18.27;;
35048;SDS011;21236;48.740;-3.446;2022-12-11T00:13:32;35.20;;;18.98;;
35048;SDS011;21236;48.740;-3.446;2022-12-11T00:15:58;30.77;;;17.45;;
35048;SDS011;21236;48.740;-3.446;2022-12-11T00:18:24;28.77;;;18.02;;
35048;SDS011;21236;48.740;-3.446;2022-12-11T00:20:51;30.02;;;16.13;;
35048;SDS011;21236;48.740;-3.446;2022-12-11T00:23:17;27.42;;;16.33;;
35048;SDS011;21236;48.740;-3.446;2022-12-11T00:25:44;29.65;;;16.92;;
35048;SDS011;21236;48.740;-3.446;2022-12-11T00:28:11;29.15;;;16.40;;
35048;SDS011;21236;48.740;-3.446;2022-12-11T00:30:38;32.95;;;17.30;;
35048;SDS011;21236;48.740;-3.446;2022-12-11T00:33:05;38.10;;;18.02;;
35048;SDS011;21236;48.740;-3.446;2022-12-11T00:35:31;32.38;;;17.17;;
35048;SDS011;21236;48.740;-3.446;2022-12-11T00:37:57;27.20;;;14.32;;
35048;SDS011;21236;48.740;-3.446;2022-12-11T00:40:23;29.20;;;15.43;;
35048;SDS011;21236;48.740;-3.446;2022-12-11T00:42:49;27.02;;;15.07;;
35048;SDS011;21236;48.740;-3.446;2022-12-11T00:45:15;29.27;;;15.85;;
35048;SDS011;21236;48.740;-3.446;2022-12-11T00:47:41;30.33;;;15.05;;
35048;SDS011;21236;48.740;-3.446;2022-12-11T00:50:07;35.65;;;19.88;;
35048;SDS011;21236;48.740;-3.446;2022-12-11T00:52:34;31.27;;;18.13;;
35048;SDS011;21236;48.740;-3.446;2022-12-11T00:55:00;30.77;;;17.95;;
35048;SDS011;21236;48.740;-3.446;2022-12-11T00:57:26;26.38;;;15.60;;
35048;SDS011;21236;48.740;-3.446;2022-12-11T00:59:53;28.60;;;16.30;;
35048;SDS011;21236;48.740;-3.446;2022-12-11T01:02:19;29.70;;;15.52;;
35048;SDS011;21236;48.740;-3.446;2022-12-11T01:04:45;26.15;;;14.95;;
35048;SDS011;21236;48.740;-3.446;2022-12-11T01:07:11;27.92;;;14.23;;
35048;SDS011;21236;48.740;-3.446;2022-12-11T01:09:37;18.08;;;12.48;;
35048;SDS011;21236;48.740;-3.446;2022-12-11T01:12:22;24.35;;;12.82;;
35048;SDS011;21236;48.740;-3.446;2022-12-11T01:14:48;21.63;;;12.13;;
35048;SDS011;21236;48.740;-3.446;2022-12-11T01:17:14;28.20;;;15.90;;
35048;SDS011;21236;48.740;-3.446;2022-12-11T01:19:41;24.70;;;14.77;;
35048;SDS011;21236;48.740;-3.446;2022-12-11T01:22:07;27.92;;;14.40;;
35048;SDS011;21236;48.740;-3.446;2022-12-11T01:24:33;26.77;;;14.68;;
35048;SDS011;21236;48.740;-3.446;2022-12-11T01:27:00;30.20;;;14.32;;
35048;SDS011;21236;48.740;-3.446;2022-12-11T01:29:26;21.17;;;12.55;;
35048;SDS011;21236;48.740;-3.446;2022-12-11T01:31:52;22.77;;;12.32;;
35048;SDS011;21236;48.740;-3.446;2022-12-11T01:34:18;17.98;;;11.25;;
35048;SDS011;21236;48.740;-3.446;2022-12-11T01:36:44;15.95;;;10.57;;
35048;SDS011;21236;48.740;-3.446;2022-12-11T01:39:10;22.90;;;12.00;;
35048;SDS011;21236;48.740;-3.446;2022-12-11T01:41:36;19.55;;;12.40;;
35048;SDS011;21236;48.740;-3.446;2022-12-11T01:44:07;18.45;;;10.70;;
35048;SDS011;21236;48.740;-3.446;2022-12-11T01:46:52;16.55;;;9.63;;
35048;SDS011;21236;48.740;-3.446;2022-12-11T01:49:19;16.27;;;9.82;;
35048;SDS011;21236;48.740;-3.446;2022-12-11T01:51:50;18.08;;;10.35;;
35048;SDS011;21236;48.740;-3.446;2022-12-11T01:54:18;19.40;;;10.70;;
35048;SDS011;21236;48.740;-3.446;2022-12-11T01:56:46;15.20;;;10.02;;
35048;SDS011;21236;48.740;-3.446;2022-12-11T01:59:13;17.52;;;10.52;;
35048;SDS011;21236;48.740;-3.446;2022-12-11T02:01:44;18.63;;;9.65;;
35048;SDS011;21236;48.740;-3.446;2022-12-11T02:04:15;15.95;;;8.88;;
35048;SDS011;21236;48.740;-3.446;2022-12-11T02:06:46;17.48;;;9.82;;
35048;SDS011;21236;48.740;-3.446;2022-12-11T02:09:13;12.43;;;8.35;;
35048;SDS011;21236;48.740;-3.446;2022-12-11T02:11:54;13.15;;;8.55;;
35048;SDS011;21236;48.740;-3.446;2022-12-11T02:14:25;14.07;;;8.63;;
35048;SDS011;21236;48.740;-3.446;2022-12-11T02:21:54;17.88;;;10.05;;
35048;SDS011;21236;48.740;-3.446;2022-12-11T02:27:10;18.75;;;8.95;;
35048;SDS011;21236;48.740;-3.446;2022-12-11T02:29:37;19.17;;;8.68;;
35048;SDS011;21236;48.740;-3.446;2022-12-11T02:34:36;13.13;;;8.15;;
35048;SDS011;21236;48.740;-3.446;2022-12-11T02:37:06;14.02;;;7.28;;
35048;SDS011;21236;48.740;-3.446;2022-12-11T02:39:34;19.05;;;8.10;;
35048;SDS011;21236;48.740;-3.446;2022-12-11T02:42:01;12.40;;;8.23;;
35048;SDS011;21236;48.740;-3.446;2022-12-11T02:44:29;22.52;;;9.10;;
35048;SDS011;21236;48.740;-3.446;2022-12-11T02:46:57;12.98;;;7.88;;
35048;SDS011;21236;48.740;-3.446;2022-12-11T02:49:23;14.63;;;8.30;;
35048;SDS011;21236;48.740;-3.446;2022-12-11T02:51:51;12.52;;;8.35;;
35048;SDS011;21236;48.740;-3.446;2022-12-11T02:54:18;18.60;;;8.45;;
35048;SDS011;21236;48.740;-3.446;2022-12-11T02:56:48;19.30;;;9.90;;
35048;SDS011;21236;48.740;-3.446;2022-12-11T02:59:19;18.23;;;10.65;;
35048;SDS011;21236;48.740;-3.446;2022-12-11T03:01:46;21.48;;;11.40;;
35048;SDS011;21236;48.740;-3.446;2022-12-11T03:04:12;29.60;;;13.63;;
35048;SDS011;21236;48.740;-3.446;2022-12-11T03:06:40;24.27;;;12.77;;
35048;SDS011;21236;48.740;-3.446;2022-12-11T03:09:08;21.77;;;12.07;;
35048;SDS011;21236;48.740;-3.446;2022-12-11T03:11:34;31.98;;;13.90;;
35048;SDS011;21236;48.740;-3.446;2022-12-11T03:14:00;25.15;;;13.32;;
35048;SDS011;21236;48.740;-3.446;2022-12-11T03:16:37;28.13;;;14.25;;
35048;SDS011;21236;48.740;-3.446;2022-12-11T03:21:48;29.35;;;14.05;;
35048;SDS011;21236;48.740;-3.446;2022-12-11T03:24:32;21.48;;;12.13;;
35048;SDS011;21236;48.740;-3.446;2022-12-11T03:27:03;22.40;;;12.20;;
35048;SDS011;21236;48.740;-3.446;2022-12-11T03:29:36;25.52;;;12.98;;
35048;SDS011;21236;48.740;-3.446;2022-12-11T03:32:07;23.35;;;12.95;;
35048;SDS011;21236;48.740;-3.446;2022-12-11T03:37:01;28.00;;;14.23;;
35048;SDS011;21236;48.740;-3.446;2022-12-11T03:39:30;32.80;;;16.15;;
35048;SDS011;21236;48.740;-3.446;2022-12-11T03:41:56;30.98;;;16.02;;
35048;SDS011;21236;48.740;-3.446;2022-12-11T03:44:26;20.95;;;12.43;;
35048;SDS011;21236;48.740;-3.446;2022-12-11T03:46:53;28.17;;;14.00;;
35048;SDS011;21236;48.740;-3.446;2022-12-11T03:49:22;23.55;;;12.50;;
35048;SDS011;21236;48.740;-3.446;2022-12-11T03:51:49;28.35;;;15.07;;
35048;SDS011;21236;48.740;-3.446;2022-12-11T03:54:16;28.48;;;16.05;;
35048;SDS011;21236;48.740;-3.446;2022-12-11T03:56:42;35.40;;;19.38;;
35048;SDS011;21236;48.740;-3.446;2022-12-11T03:59:11;33.40;;;17.98;;
35048;SDS011;21236;48.740;-3.446;2022-12-11T04:01:37;40.67;;;19.33;;
35048;SDS011;21236;48.740;-3.446;2022-12-11T04:04:03;30.27;;;17.48;;
35048;SDS011;21236;48.740;-3.446;2022-12-11T04:06:29;34.45;;;18.05;;
35048;SDS011;21236;48.740;-3.446;2022-12-11T04:08:56;29.88;;;16.70;;
35048;SDS011;21236;48.740;-3.446;2022-12-11T04:11:22;28.80;;;15.95;;
35048;SDS011;21236;48.740;-3.446;2022-12-11T04:14:03;25.85;;;15.75;;
35048;SDS011;21236;48.740;-3.446;2022-12-11T04:16:48;29.92;;;14.63;;
35048;SDS011;21236;48.740;-3.446;2022-12-11T04:19:15;28.95;;;13.32;;
35048;SDS011;21236;48.740;-3.446;2022-12-11T04:22:00;27.15;;;14.07;;
35048;SDS011;21236;48.740;-3.446;2022-12-11T04:24:46;21.13;;;12.60;;
35048;SDS011;21236;48.740;-3.446;2022-12-11T04:27:13;20.90;;;12.00;;
35048;SDS011;21236;48.740;-3.446;2022-12-11T04:29:59;16.80;;;10.02;;
35048;SDS011;21236;48.740;-3.446;2022-12-11T04:32:25;23.13;;;12.50;;
35048;SDS011;21236;48.740;-3.446;2022-12-11T04:34:51;14.90;;;9.45;;
35048;SDS011;21236;48.740;-3.446;2022-12-11T04:37:17;23.05;;;10.43;;
35048;SDS011;21236;48.740;-3.446;2022-12-11T04:39:43;17.77;;;9.98;;
35048;SDS011;21236;48.740;-3.446;2022-12-11T04:42:09;18.05;;;10.05;;
35048;SDS011;21236;48.740;-3.446;2022-12-11T04:44:35;19.52;;;10.25;;
35048;SDS011;21236;48.740;-3.446;2022-12-11T04:47:02;15.02;;;8.68;;
35048;SDS011;21236;48.740;-3.446;2022-12-11T04:49:28;17.45;;;9.73;;
35048;SDS011;21236;48.740;-3.446;2022-12-11T04:51:54;17.67;;;9.10;;
35048;SDS011;21236;48.740;-3.446;2022-12-11T04:54:20;16.58;;;8.50;;
35048;SDS011;21236;48.740;-3.446;2022-12-11T04:56:46;12.75;;;8.18;;
35048;SDS011;21236;48.740;-3.446;2022-12-11T04:59:12;11.65;;;7.43;;
35048;SDS011;21236;48.740;-3.446;2022-12-11T05:01:38;12.98;;;8.10;;
35048;SDS011;21236;48.740;-3.446;2022-12-11T05:04:05;12.15;;;8.30;;
35048;SDS011;21236;48.740;-3.446;2022-12-11T05:06:31;10.82;;;7.07;;
35048;SDS011;21236;48.740;-3.446;2022-12-11T05:08:57;13.15;;;8.20;;
35048;SDS011;21236;48.740;-3.446;2022-12-11T05:11:23;13.50;;;7.60;;
35048;SDS011;21236;48.740;-3.446;2022-12-11T05:13:49;13.00;;;7.38;;
35048;SDS011;21236;48.740;-3.446;2022-12-11T05:16:16;12.38;;;6.88;;
35048;SDS011;21236;48.740;-3.446;2022-12-11T05:18:42;11.98;;;7.35;;
35048;SDS011;21236;48.740;-3.446;2022-12-11T05:21:10;11.32;;;6.60;;
35048;SDS011;21236;48.740;-3.446;2022-12-11T05:23:36;15.18;;;7.50;;
35048;SDS011;21236;48.740;-3.446;2022-12-11T05:26:04;10.40;;;6.20;;
35048;SDS011;21236;48.740;-3.446;2022-12-11T05:28:31;10.88;;;7.43;;
35048;SDS011;21236;48.740;-3.446;2022-12-11T05:30:58;14.10;;;6.15;;
35048;SDS011;21236;48.740;-3.446;2022-12-11T05:33:25;11.35;;;7.25;;
35048;SDS011;21236;48.740;-3.446;2022-12-11T05:35:51;11.65;;;6.78;;
35048;SDS011;21236;48.740;-3.446;2022-12-11T05:38:17;11.63;;;6.78;;
35048;SDS011;21236;48.740;-3.446;2022-12-11T05:40:43;15.07;;;7.15;;
35048;SDS011;21236;48.740;-3.446;2022-12-11T05:43:09;12.50;;;6.88;;
35048;SDS011;21236;48.740;-3.446;2022-12-11T05:45:35;11.65;;;6.93;;
35048;SDS011;21236;48.740;-3.446;2022-12-11T05:48:02;14.23;;;6.80;;
35048;SDS011;21236;48.740;-3.446;2022-12-11T05:50:28;14.60;;;7.13;;
35048;SDS011;21236;48.740;-3.446;2022-12-11T05:52:54;12.50;;;7.00;;
35048;SDS011;21236;48.740;-3.446;2022-12-11T05:55:20;12.45;;;6.95;;
35048;SDS011;21236;48.740;-3.446;2022-12-11T05:57:46;15.02;;;7.13;;
35048;SDS011;21236;48.740;-3.446;2022-12-11T06:00:12;13.57;;;6.82;;
35048;SDS011;21236;48.740;-3.446;2022-12-11T06:02:39;20.67;;;7.45;;
35048;SDS011;21236;48.740;-3.446;2022-12-11T06:05:05;13.90;;;6.28;;
35048;SDS011;21236;48.740;-3.446;2022-12-11T06:07:31;14.85;;;7.20;;
35048;SDS011;21236;48.740;-3.446;2022-12-11T06:09:57;14.50;;;8.18;;
35048;SDS011;21236;48.740;-3.446;2022-12-11T06:12:23;13.98;;;7.25;;
35048;SDS011;21236;48.740;-3.446;2022-12-11T06:14:49;13.63;;;7.50;;
35048;SDS011;21236;48.740;-3.446;2022-12-11T06:17:15;16.80;;;7.90;;
35048;SDS011;21236;48.740;-3.446;2022-12-11T06:19:41;19.58;;;9.00;;
35048;SDS011;21236;48.740;-3.446;2022-12-11T06:22:07;22.85;;;8.02;;
35048;SDS011;21236;48.740;-3.446;2022-12-11T06:24:34;23.30;;;7.70;;
35048;SDS011;21236;48.740;-3.446;2022-12-11T06:27:00;27.13;;;7.10;;
35048;SDS011;21236;48.740;-3.446;2022-12-11T06:29:26;24.25;;;7.45;;
35048;SDS011;21236;48.740;-3.446;2022-12-11T06:31:52;17.20;;;8.20;;
35048;SDS011;21236;48.740;-3.446;2022-12-11T06:34:18;42.50;;;8.90;;
35048;SDS011;21236;48.740;-3.446;2022-12-11T06:36:44;30.55;;;8.80;;
35048;SDS011;21236;48.740;-3.446;2022-12-11T06:39:10;15.90;;;7.70;;
35048;SDS011;21236;48.740;-3.446;2022-12-11T06:41:36;17.10;;;8.80;;
35048;SDS011;21236;48.740;-3.446;2022-12-11T06:44:02;16.52;;;7.97;;
35048;SDS011;21236;48.740;-3.446;2022-12-11T06:46:28;15.60;;;8.32;;
35048;SDS011;21236;48.740;-3.446;2022-12-11T06:48:55;14.82;;;8.32;;
35048;SDS011;21236;48.740;-3.446;2022-12-11T06:51:21;16.02;;;8.05;;
35048;SDS011;21236;48.740;-3.446;2022-12-11T06:53:51;11.82;;;7.60;;
35048;SDS011;21236;48.740;-3.446;2022-12-11T06:56:17;14.35;;;8.07;;
35048;SDS011;21236;48.740;-3.446;2022-12-11T06:58:44;14.02;;;8.20;;
35048;SDS011;21236;48.740;-3.446;2022-12-11T07:01:14;14.50;;;8.73;;
35048;SDS011;21236;48.740;-3.446;2022-12-11T07:03:41;18.23;;;8.48;;
35048;SDS011;21236;48.740;-3.446;2022-12-11T07:06:07;19.55;;;9.38;;
35048;SDS011;21236;48.740;-3.446;2022-12-11T07:08:33;16.58;;;8.93;;
35048;SDS011;21236;48.740;-3.446;2022-12-11T07:11:07;16.52;;;8.95;;
35048;SDS011;21236;48.740;-3.446;2022-12-11T07:13:33;17.02;;;9.27;;
35048;SDS011;21236;48.740;-3.446;2022-12-11T07:16:00;15.23;;;8.77;;
35048;SDS011;21236;48.740;-3.446;2022-12-11T07:18:28;16.48;;;9.05;;
35048;SDS011;21236;48.740;-3.446;2022-12-11T07:20:56;17.92;;;9.00;;
35048;SDS011;21236;48.740;-3.446;2022-12-11T07:23:23;17.58;;;8.35;;
35048;SDS011;21236;48.740;-3.446;2022-12-11T07:25:49;16.38;;;8.75;;
35048;SDS011;21236;48.740;-3.446;2022-12-11T07:28:15;16.83;;;8.68;;
35048;SDS011;21236;48.740;-3.446;2022-12-11T07:30:41;15.75;;;8.63;;
35048;SDS011;21236;48.740;-3.446;2022-12-11T07:33:07;17.15;;;8.27;;
35048;SDS011;21236;48.740;-3.446;2022-12-11T07:35:34;21.88;;;8.55;;
35048;SDS011;21236;48.740;-3.446;2022-12-11T07:38:00;14.43;;;9.13;;
35048;SDS011;21236;48.740;-3.446;2022-12-11T07:40:27;19.73;;;9.95;;
35048;SDS011;21236;48.740;-3.446;2022-12-11T07:42:53;16.27;;;8.82;;
35048;SDS011;21236;48.740;-3.446;2022-12-11T07:45:19;17.38;;;8.98;;
35048;SDS011;21236;48.740;-3.446;2022-12-11T07:47:45;17.13;;;9.07;;
35048;SDS011;21236;48.740;-3.446;2022-12-11T07:50:11;21.05;;;11.75;;
35048;SDS011;21236;48.740;-3.446;2022-12-11T07:52:37;24.02;;;13.05;;
35048;SDS011;21236;48.740;-3.446;2022-12-11T07:55:03;34.53;;;16.42;;
35048;SDS011;21236;48.740;-3.446;2022-12-11T07:57:30;32.70;;;12.55;;
35048;SDS011;21236;48.740;-3.446;2022-12-11T07:59:56;24.20;;;14.82;;
35048;SDS011;21236;48.740;-3.446;2022-12-11T08:02:22;31.65;;;18.77;;
35048;SDS011;21236;48.740;-3.446;2022-12-11T08:04:48;40.33;;;24.05;;
35048;SDS011;21236;48.740;-3.446;2022-12-11T08:07:14;38.17;;;20.65;;
35048;SDS011;21236;48.740;-3.446;2022-12-11T08:09:40;23.63;;;12.95;;
35048;SDS011;21236;48.740;-3.446;2022-12-11T08:12:06;22.70;;;11.95;;
35048;SDS011;21236;48.740;-3.446;2022-12-11T08:14:32;24.90;;;12.77;;
35048;SDS011;21236;48.740;-3.446;2022-12-11T08:16:59;23.23;;;12.73;;
35048;SDS011;21236;48.740;-3.446;2022-12-11T08:19:26;23.90;;;12.55;;
35048;SDS011;21236;48.740;-3.446;2022-12-11T08:21:52;27.08;;;12.50;;
35048;SDS011;21236;48.740;-3.446;2022-12-11T08:24:18;26.13;;;12.75;;
35048;SDS011;21236;48.740;-3.446;2022-12-11T08:26:45;20.77;;;11.65;;
35048;SDS011;21236;48.740;-3.446;2022-12-11T08:29:11;25.35;;;12.20;;
35048;SDS011;21236;48.740;-3.446;2022-12-11T08:31:38;23.83;;;12.65;;
35048;SDS011;21236;48.740;-3.446;2022-12-11T08:34:05;26.75;;;12.18;;
35048;SDS011;21236;48.740;-3.446;2022-12-11T08:36:31;25.30;;;13.88;;
35048;SDS011;21236;48.740;-3.446;2022-12-11T08:38:57;19.75;;;11.18;;
35048;SDS011;21236;48.740;-3.446;2022-12-11T08:41:27;24.90;;;12.93;;
35048;SDS011;21236;48.740;-3.446;2022-12-11T08:43:54;25.10;;;13.93;;
35048;SDS011;21236;48.740;-3.446;2022-12-11T08:46:21;30.60;;;16.02;;
35048;SDS011;21236;48.740;-3.446;2022-12-11T08:48:48;25.20;;;14.60;;
35048;SDS011;21236;48.740;-3.446;2022-12-11T08:51:15;28.77;;;16.20;;
35048;SDS011;21236;48.740;-3.446;2022-12-11T08:53:41;25.33;;;13.52;;
35048;SDS011;21236;48.740;-3.446;2022-12-11T08:56:09;27.70;;;14.25;;
35048;SDS011;21236;48.740;-3.446;2022-12-11T08:58:36;30.75;;;15.25;;
35048;SDS011;21236;48.740;-3.446;2022-12-11T09:01:05;31.85;;;17.45;;
35048;SDS011;21236;48.740;-3.446;2022-12-11T09:03:33;35.40;;;18.02;;
35048;SDS011;21236;48.740;-3.446;2022-12-11T09:05:59;34.72;;;16.92;;
35048;SDS011;21236;48.740;-3.446;2022-12-11T09:08:25;31.52;;;15.60;;
35048;SDS011;21236;48.740;-3.446;2022-12-11T09:10:51;30.77;;;15.57;;
35048;SDS011;21236;48.740;-3.446;2022-12-11T09:13:17;32.65;;;16.77;;
35048;SDS011;21236;48.740;-3.446;2022-12-11T09:15:43;32.25;;;16.65;;
35048;SDS011;21236;48.740;-3.446;2022-12-11T09:18:09;34.22;;;17.15;;
35048;SDS011;21236;48.740;-3.446;2022-12-11T09:20:35;31.67;;;17.13;;
35048;SDS011;21236;48.740;-3.446;2022-12-11T09:23:01;38.45;;;18.08;;
35048;SDS011;21236;48.740;-3.446;2022-12-11T09:25:28;34.53;;;15.20;;
35048;SDS011;21236;48.740;-3.446;2022-12-11T09:27:54;27.58;;;15.13;;
35048;SDS011;21236;48.740;-3.446;2022-12-11T09:30:20;27.67;;;14.80;;
35048;SDS011;21236;48.740;-3.446;2022-12-11T09:32:46;28.48;;;15.27;;
35048;SDS011;21236;48.740;-3.446;2022-12-11T09:35:12;27.83;;;13.85;;
35048;SDS011;21236;48.740;-3.446;2022-12-11T09:37:39;31.58;;;14.77;;
35048;SDS011;21236;48.740;-3.446;2022-12-11T09:40:05;27.25;;;15.82;;
35048;SDS011;21236;48.740;-3.446;2022-12-11T09:42:50;31.30;;;15.65;;
35048;SDS011;21236;48.740;-3.446;2022-12-11T09:45:17;26.08;;;13.43;;
35048;SDS011;21236;48.740;-3.446;2022-12-11T09:47:44;32.75;;;17.02;;
35048;SDS011;21236;48.740;-3.446;2022-12-11T09:50:22;35.63;;;16.48;;
35048;SDS011;21236;48.740;-3.446;2022-12-11T09:53:06;33.70;;;17.17;;
35048;SDS011;21236;48.740;-3.446;2022-12-11T09:55:47;28.30;;;14.15;;
35048;SDS011;21236;48.740;-3.446;2022-12-11T10:03:21;30.40;;;15.30;;
35048;SDS011;21236;48.740;-3.446;2022-12-11T10:08:29;22.33;;;12.77;;
35048;SDS011;21236;48.740;-3.446;2022-12-11T10:16:09;24.10;;;14.35;;
35048;SDS011;21236;48.740;-3.446;2022-12-11T10:18:37;21.90;;;11.88;;
35048;SDS011;21236;48.740;-3.446;2022-12-11T10:21:04;23.55;;;12.43;;
35048;SDS011;21236;48.740;-3.446;2022-12-11T10:23:32;21.00;;;11.88;;
35048;SDS011;21236;48.740;-3.446;2022-12-11T10:26:03;20.17;;;12.27;;
35048;SDS011;21236;48.740;-3.446;2022-12-11T10:28:31;20.02;;;11.43;;
35048;SDS011;21236;48.740;-3.446;2022-12-11T10:31:00;18.33;;;10.60;;
35048;SDS011;21236;48.740;-3.446;2022-12-11T10:33:32;20.77;;;11.38;;
35048;SDS011;21236;48.740;-3.446;2022-12-11T10:36:00;20.35;;;11.18;;
35048;SDS011;21236;48.740;-3.446;2022-12-11T10:38:27;17.20;;;11.07;;
35048;SDS011;21236;48.740;-3.446;2022-12-11T10:40:56;19.42;;;11.73;;
35048;SDS011;21236;48.740;-3.446;2022-12-11T10:43:32;16.98;;;11.15;;
35048;SDS011;21236;48.740;-3.446;2022-12-11T10:45:59;21.30;;;12.32;;
35048;SDS011;21236;48.740;-3.446;2022-12-11T10:48:25;22.00;;;11.32;;
35048;SDS011;21236;48.740;-3.446;2022-12-11T10:50:55;16.08;;;11.15;;
35048;SDS011;21236;48.740;-3.446;2022-12-11T10:53:21;17.50;;;10.65;;
35048;SDS011;21236;48.740;-3.446;2022-12-11T10:55:49;19.52;;;11.43;;
35048;SDS011;21236;48.740;-3.446;2022-12-11T10:58:16;17.02;;;10.88;;
35048;SDS011;21236;48.740;-3.446;2022-12-11T11:00:43;21.55;;;10.60;;
35048;SDS011;21236;48.740;-3.446;2022-12-11T11:03:25;16.67;;;10.43;;
35048;SDS011;21236;48.740;-3.446;2022-12-11T11:06:02;23.85;;;12.00;;
35048;SDS011;21236;48.740;-3.446;2022-12-11T11:08:28;27.95;;;13.90;;
35048;SDS011;21236;48.740;-3.446;2022-12-11T11:11:02;18.90;;;10.77;;
35048;SDS011;21236;48.740;-3.446;2022-12-11T11:13:28;17.73;;;9.98;;
35048;SDS011;21236;48.740;-3.446;2022-12-11T11:16:05;18.60;;;10.73;;
35048;SDS011;21236;48.740;-3.446;2022-12-11T11:18:33;18.58;;;10.02;;
35048;SDS011;21236;48.740;-3.446;2022-12-11T11:21:00;19.42;;;10.32;;
35048;SDS011;21236;48.740;-3.446;2022-12-11T11:23:26;16.98;;;10.02;;
35048;SDS011;21236;48.740;-3.446;2022-12-11T11:25:54;17.70;;;10.70;;
35048;SDS011;21236;48.740;-3.446;2022-12-11T11:28:23;17.70;;;9.95;;
35048;SDS011;21236;48.740;-3.446;2022-12-11T11:30:58;16.58;;;9.07;;
35048;SDS011;21236;48.740;-3.446;2022-12-11T11:33:25;19.00;;;10.88;;
35048;SDS011;21236;48.740;-3.446;2022-12-11T11:38:19;18.35;;;10.48;;
35048;SDS011;21236;48.740;-3.446;2022-12-11T11:46:36;17.00;;;9.50;;
35048;SDS011;21236;48.740;-3.446;2022-12-11T11:48:44;17.42;;;9.55;;
35048;SDS011;21236;48.740;-3.446;2022-12-11T11:51:33;15.07;;;9.10;;
35048;SDS011;21236;48.740;-3.446;2022-12-11T11:54:00;18.65;;;11.50;;
35048;SDS011;21236;48.740;-3.446;2022-12-11T11:56:30;24.80;;;14.55;;
35048;SDS011;21236;48.740;-3.446;2022-12-11T11:59:05;17.92;;;9.98;;
35048;SDS011;21236;48.740;-3.446;2022-12-11T12:01:32;16.75;;;11.40;;
35048;SDS011;21236;48.740;-3.446;2022-12-11T12:03:59;15.18;;;9.45;;
35048;SDS011;21236;48.740;-3.446;2022-12-11T12:07:04;16.35;;;10.15;;
35048;SDS011;21236;48.740;-3.446;2022-12-11T12:09:22;16.85;;;9.98;;
35048;SDS011;21236;48.740;-3.446;2022-12-11T12:11:53;18.55;;;9.43;;
35048;SDS011;21236;48.740;-3.446;2022-12-11T12:14:23;16.17;;;9.27;;
35048;SDS011;21236;48.740;-3.446;2022-12-11T12:17:03;15.05;;;9.18;;
35048;SDS011;21236;48.740;-3.446;2022-12-11T12:19:42;14.70;;;8.98;;
35048;SDS011;21236;48.740;-3.446;2022-12-11T12:22:19;12.90;;;8.05;;
35048;SDS011;21236;48.740;-3.446;2022-12-11T12:37:37;11.45;;;6.93;;
35048;SDS011;21236;48.740;-3.446;2022-12-11T12:40:15;13.63;;;7.50;;
35048;SDS011;21236;48.740;-3.446;2022-12-11T12:45:30;12.95;;;7.55;;
35048;SDS011;21236;48.740;-3.446;2022-12-11T12:47:59;11.77;;;7.38;;
35048;SDS011;21236;48.740;-3.446;2022-12-11T12:50:28;11.63;;;7.05;;
35048;SDS011;21236;48.740;-3.446;2022-12-11T12:52:59;9.82;;;6.43;;
35048;SDS011;21236;48.740;-3.446;2022-12-11T12:55:26;12.82;;;6.88;;
35048;SDS011;21236;48.740;-3.446;2022-12-11T12:57:55;9.93;;;6.85;;
35048;SDS011;21236;48.740;-3.446;2022-12-11T13:00:26;8.75;;;5.93;;
35048;SDS011;21236;48.740;-3.446;2022-12-11T13:02:52;12.23;;;7.13;;
35048;SDS011;21236;48.740;-3.446;2022-12-11T13:05:30;11.52;;;7.20;;
35048;SDS011;21236;48.740;-3.446;2022-12-11T13:08:00;12.52;;;6.63;;
35048;SDS011;21236;48.740;-3.446;2022-12-11T13:10:34;9.57;;;6.38;;
35048;SDS011;21236;48.740;-3.446;2022-12-11T13:13:01;9.18;;;6.40;;
35048;SDS011;21236;48.740;-3.446;2022-12-11T13:17:57;9.55;;;5.55;;
35048;SDS011;21236;48.740;-3.446;2022-12-11T13:20:24;7.95;;;4.95;;
35048;SDS011;21236;48.740;-3.446;2022-12-11T13:25:44;6.93;;;4.28;;
35048;SDS011;21236;48.740;-3.446;2022-12-11T13:28:27;5.78;;;3.88;;
35048;SDS011;21236;48.740;-3.446;2022-12-11T13:31:00;6.78;;;3.88;;
35048;SDS011;21236;48.740;-3.446;2022-12-11T13:33:27;5.50;;;3.38;;
35048;SDS011;21236;48.740;-3.446;2022-12-11T13:38:36;8.50;;;4.70;;
35048;SDS011;21236;48.740;-3.446;2022-12-11T13:41:08;7.55;;;4.22;;
35048;SDS011;21236;48.740;-3.446;2022-12-11T13:43:37;5.93;;;4.03;;
35048;SDS011;21236;48.740;-3.446;2022-12-11T13:46:07;8.35;;;5.15;;
35048;SDS011;21236;48.740;-3.446;2022-12-11T13:48:37;7.45;;;4.30;;
35048;SDS011;21236;48.740;-3.446;2022-12-11T13:51:05;8.63;;;4.63;;
35048;SDS011;21236;48.740;-3.446;2022-12-11T13:56:55;5.72;;;3.33;;
35048;SDS011;21236;48.740;-3.446;2022-12-11T13:59:54;6.10;;;2.78;;
35048;SDS011;21236;48.740;-3.446;2022-12-11T14:02:29;4.10;;;2.13;;
35048;SDS011;21236;48.740;-3.446;2022-12-11T14:05:02;2.30;;;1.52;;
35048;SDS011;21236;48.740;-3.446;2022-12-11T14:07:30;5.20;;;1.60;;
35048;SDS011;21236;48.740;-3.446;2022-12-11T14:10:00;3.83;;;1.45;;
35048;SDS011;21236;48.740;-3.446;2022-12-11T14:12:27;2.17;;;1.65;;
35048;SDS011;21236;48.740;-3.446;2022-12-11T14:14:54;1.67;;;1.17;;
35048;SDS011;21236;48.740;-3.446;2022-12-11T14:17:23;3.25;;;1.30;;
35048;SDS011;21236;48.740;-3.446;2022-12-11T14:19:50;2.95;;;0.88;;
35048;SDS011;21236;48.740;-3.446;2022-12-11T14:22:21;1.85;;;0.80;;
35048;SDS011;21236;48.740;-3.446;2022-12-11T14:24:48;1.65;;;0.80;;
35048;SDS011;21236;48.740;-3.446;2022-12-11T14:27:15;4.07;;;0.80;;
35048;SDS011;21236;48.740;-3.446;2022-12-11T14:29:43;2.35;;;0.90;;
35048;SDS011;21236;48.740;-3.446;2022-12-11T14:32:12;3.35;;;1.55;;
35048;SDS011;21236;48.740;-3.446;2022-12-11T14:34:42;2.88;;;1.60;;
35048;SDS011;21236;48.740;-3.446;2022-12-11T14:37:09;2.78;;;1.85;;
35048;SDS011;21236;48.740;-3.446;2022-12-11T14:42:09;3.03;;;2.78;;
35048;SDS011;21236;48.740;-3.446;2022-12-11T14:44:54;4.72;;;3.40;;
35048;SDS011;21236;48.740;-3.446;2022-12-11T14:47:22;3.47;;;2.17;;
35048;SDS011;21236;48.740;-3.446;2022-12-11T14:49:58;7.57;;;2.60;;
35048;SDS011;21236;48.740;-3.446;2022-12-11T14:52:47;4.63;;;1.80;;
35048;SDS011;21236;48.740;-3.446;2022-12-11T14:55:17;2.88;;;1.92;;
35048;SDS011;21236;48.740;-3.446;2022-12-11T14:57:45;11.85;;;1.90;;
35048;SDS011;21236;48.740;-3.446;2022-12-11T15:00:23;4.05;;;1.95;;
35048;SDS011;21236;48.740;-3.446;2022-12-11T15:03:00;4.53;;;1.77;;
35048;SDS011;21236;48.740;-3.446;2022-12-11T15:05:26;5.72;;;1.92;;
35048;SDS011;21236;48.740;-3.446;2022-12-11T15:10:20;2.50;;;1.50;;
35048;SDS011;21236;48.740;-3.446;2022-12-11T15:12:46;4.35;;;2.75;;
35048;SDS011;21236;48.740;-3.446;2022-12-11T15:15:14;6.03;;;2.05;;
35048;SDS011;21236;48.740;-3.446;2022-12-11T15:17:40;2.42;;;1.70;;
35048;SDS011;21236;48.740;-3.446;2022-12-11T15:20:09;3.92;;;2.20;;
35048;SDS011;21236;48.740;-3.446;2022-12-11T15:22:45;5.32;;;2.25;;
35048;SDS011;21236;48.740;-3.446;2022-12-11T15:25:18;5.95;;;2.28;;
35048;SDS011;21236;48.740;-3.446;2022-12-11T15:27:48;8.77;;;3.55;;
35048;SDS011;21236;48.740;-3.446;2022-12-11T15:32:46;15.32;;;10.23;;
35048;SDS011;21236;48.740;-3.446;2022-12-11T15:35:20;17.85;;;9.15;;